Time;durP1;ratioP1;P1;durP2;ratioP2;P2;SDS_P1;SDS_P2;PMS_P1;PMS_P2;Temp;Humidity;BMP_temperature;BMP_pressure;BME280_temperature;BME280_humidity;BME280_pressure;Samples;Min_cycle;Max_cycle;Signal;HPM_P1;HPM_P2
2021/12/21 00:00:56;;;;;;;11.93;5.32;;;-2.70;99.90;;;;;;5051729;28;20530;-79
2021/12/21 00:03:22;;;;;;;10.45;5.20;;;-2.70;99.90;;;;;;5033174;28;20071;-78
2021/12/21 00:05:48;;;;;;;11.30;4.95;;;-2.80;99.90;;;;;;5052128;28;20076;-79
2021/12/21 00:08:16;;;;;;;10.02;4.80;;;-2.80;99.90;;;;;;5017656;28;20071;-79
2021/12/21 00:10:44;;;;;;;16.38;5.85;;;-2.80;99.90;;;;;;5051209;28;20048;-80
2021/12/21 00:13:25;;;;;;;8.43;4.45;;;-2.80;99.90;;;;;;5051751;28;21539;-81
2021/12/21 00:16:01;;;;;;;13.80;5.10;;;-2.80;99.90;;;;;;5051896;28;20049;-79
2021/12/21 00:18:35;;;;;;;9.75;4.60;;;-2.80;99.90;;;;;;5051662;28;20047;-81
2021/12/21 00:23:35;;;;;;;15.70;4.45;;;-2.90;99.90;;;;;;5031549;28;20531;-81
2021/12/21 00:26:07;;;;;;;10.70;4.13;;;-2.90;99.90;;;;;;5014367;28;20049;-80
2021/12/21 00:28:40;;;;;;;12.95;4.85;;;-2.90;99.90;;;;;;5035524;28;20033;-78
2021/12/21 00:31:05;;;;;;;11.75;5.70;;;-2.90;99.90;;;;;;5051778;28;20492;-80
2021/12/21 00:33:31;;;;;;;13.15;4.50;;;-3.00;99.90;;;;;;5033782;28;20075;-80
2021/12/21 00:35:57;;;;;;;12.95;5.78;;;-3.00;99.90;;;;;;5051787;28;20403;-80
2021/12/21 00:38:23;;;;;;;11.80;4.90;;;-2.90;99.90;;;;;;5051699;28;20048;-80
2021/12/21 00:40:48;;;;;;;19.48;5.70;;;-3.00;99.90;;;;;;5050874;28;20431;-80
2021/12/21 00:43:14;;;;;;;12.77;5.78;;;-2.90;99.90;;;;;;5054424;28;20045;-81
2021/12/21 00:45:40;;;;;;;10.98;5.40;;;-3.00;99.90;;;;;;5037733;28;20045;-79
2021/12/21 00:48:05;;;;;;;12.35;5.25;;;-2.90;99.90;;;;;;5055028;28;20132;-79
2021/12/21 00:50:31;;;;;;;10.55;4.55;;;-3.00;99.90;;;;;;5054717;28;20045;-79
2021/12/21 00:52:57;;;;;;;10.82;5.40;;;-2.90;99.90;;;;;;5054365;28;20474;-79
2021/12/21 00:55:23;;;;;;;14.15;5.38;;;-2.90;99.90;;;;;;5036827;28;20045;-79
2021/12/21 00:57:49;;;;;;;12.93;5.45;;;-3.00;99.90;;;;;;5036846;28;20053;-79
2021/12/21 01:00:17;;;;;;;10.05;5.18;;;-3.00;99.90;;;;;;5055097;28;20052;-80
2021/12/21 01:02:44;;;;;;;12.18;4.95;;;-3.00;99.90;;;;;;5055255;28;20080;-80
2021/12/21 01:05:19;;;;;;;8.55;4.43;;;-3.00;99.90;;;;;;5054845;28;20115;-80
2021/12/21 01:07:49;;;;;;;11.32;5.05;;;-3.00;99.90;;;;;;5054463;28;20045;-79
2021/12/21 01:10:47;;;;;;;11.30;4.82;;;-3.00;99.90;;;;;;5036663;28;20488;-80
2021/12/21 01:13:16;;;;;;;13.17;5.80;;;-3.00;99.90;;;;;;5054567;28;20574;-79
2021/12/21 01:18:14;;;;;;;9.38;4.80;;;-3.10;99.90;;;;;;5054078;28;20136;-79
2021/12/21 01:20:46;;;;;;;12.13;4.88;;;-3.10;99.90;;;;;;5036510;28;20115;-79
2021/12/21 01:41:45;;;;;;;12.52;5.25;;;-3.20;99.90;;;;;;4972958;28;20051;-79
2021/12/21 01:49:45;;;;;;;11.07;5.15;;;-3.20;99.90;;;;;;4973242;28;20056;-79
2021/12/21 01:52:20;;;;;;;8.05;4.53;;;-3.20;99.90;;;;;;4972727;28;20050;-79
2021/12/21 01:54:47;;;;;;;11.35;5.35;;;-3.20;99.90;;;;;;4969387;28;20085;-79
2021/12/21 01:57:14;;;;;;;11.10;4.78;;;-3.30;99.90;;;;;;4985251;28;20481;-79
2021/12/21 01:59:41;;;;;;;12.27;5.32;;;-3.30;99.90;;;;;;5016323;28;20053;-79
2021/12/21 02:02:09;;;;;;;9.98;5.50;;;-3.30;99.90;;;;;;5053624;28;20049;-78
2021/12/21 02:04:40;;;;;;;14.65;5.60;;;-3.30;99.90;;;;;;5053634;28;20197;-79
2021/12/21 02:07:06;;;;;;;12.93;4.65;;;-3.30;99.90;;;;;;5053972;28;20095;-77
2021/12/21 02:09:38;;;;;;;10.23;5.72;;;-3.30;99.90;;;;;;5053710;28;20045;-79
2021/12/21 02:12:16;;;;;;;14.02;5.35;;;-3.30;99.90;;;;;;5035824;28;20049;-79
2021/12/21 02:14:43;;;;;;;13.23;5.05;;;-3.40;99.90;;;;;;5053233;28;20462;-78
2021/12/21 02:20:15;;;;;;;10.25;4.85;;;-3.40;99.90;;;;;;5052851;28;20134;-79
2021/12/21 02:22:48;;;;;;;8.90;4.15;;;-3.40;99.90;;;;;;5053732;28;20106;-79
2021/12/21 02:25:36;;;;;;;10.30;4.72;;;-3.40;99.90;;;;;;5052941;28;20044;-77
2021/12/21 02:30:44;;;;;;;13.82;5.47;;;-3.40;99.90;;;;;;5053174;28;20183;-78
2021/12/21 02:33:12;;;;;;;12.38;5.07;;;-3.50;99.90;;;;;;5053006;28;20396;-79
2021/12/21 02:35:37;;;;;;;10.77;5.05;;;-3.40;99.90;;;;;;5053316;28;20049;-79
2021/12/21 02:38:03;;;;;;;15.13;5.18;;;-3.40;99.90;;;;;;5053423;28;20071;-79
2021/12/21 02:40:29;;;;;;;12.48;5.65;;;-3.50;99.90;;;;;;5052424;28;20049;-79
2021/12/21 02:42:55;;;;;;;15.38;6.10;;;-3.50;99.90;;;;;;5035386;28;20504;-79
2021/12/21 02:45:20;;;;;;;15.02;5.63;;;-3.50;99.90;;;;;;5052927;28;20480;-79
2021/12/21 02:47:46;;;;;;;14.88;5.88;;;-3.50;99.90;;;;;;5053097;28;20037;-79
2021/12/21 02:50:12;;;;;;;14.48;6.63;;;-3.50;99.90;;;;;;5052681;28;20061;-77
2021/12/21 02:52:37;;;;;;;12.57;6.57;;;-3.50;99.90;;;;;;5052844;28;20045;-79
2021/12/21 02:55:05;;;;;;;15.55;5.85;;;-3.50;99.90;;;;;;5053021;28;20047;-79
2021/12/21 02:57:31;;;;;;;13.57;6.05;;;-3.60;99.90;;;;;;5035137;28;20072;-79
2021/12/21 02:59:56;;;;;;;16.13;6.50;;;-3.60;99.90;;;;;;5052326;28;20037;-80
2021/12/21 03:02:22;;;;;;;13.27;6.88;;;-3.60;99.90;;;;;;5034263;28;20118;-79
2021/12/21 03:04:50;;;;;;;13.80;6.38;;;-3.60;99.90;;;;;;5052693;28;20050;-79
2021/12/21 03:10:03;;;;;;;15.80;6.68;;;-3.60;99.90;;;;;;5052844;28;20459;-79
2021/12/21 03:15:14;;;;;;;;;;;-2.70;99.90;;;;;;5052736;28;20048;-78
2021/12/21 03:17:39;;;;;;;13.15;6.10;;;-3.70;99.90;;;;;;5052639;28;19938;-78
2021/12/21 03:20:05;;;;;;;12.35;6.45;;;-3.60;99.90;;;;;;5052350;28;20096;-79
2021/12/21 03:22:31;;;;;;;13.77;7.03;;;-3.70;99.90;;;;;;5052076;28;20068;-78
2021/12/21 03:24:57;;;;;;;14.63;6.35;;;-3.70;99.90;;;;;;5052343;28;20460;-79
2021/12/21 03:27:22;;;;;;;14.50;7.13;;;-3.70;99.90;;;;;;5052348;28;20423;-79
2021/12/21 03:29:48;;;;;;;16.45;6.35;;;-3.70;99.90;;;;;;5052375;28;20399;-79
2021/12/21 03:32:14;;;;;;;15.88;6.38;;;-3.70;99.90;;;;;;5052029;28;20048;-79
2021/12/21 03:34:39;;;;;;;13.13;6.30;;;-3.70;99.90;;;;;;5051365;28;20153;-79
2021/12/21 03:37:11;;;;;;;12.27;5.75;;;-3.70;99.90;;;;;;5052574;28;20044;-79
2021/12/21 03:39:41;;;;;;;13.70;6.43;;;-3.70;99.90;;;;;;5052360;28;20068;-78
2021/12/21 03:42:08;;;;;;;11.30;5.88;;;-3.70;99.90;;;;;;5052206;28;20492;-79
2021/12/21 03:44:34;;;;;;;12.13;6.60;;;-3.70;99.90;;;;;;5033642;28;20045;-79
2021/12/21 03:47:00;;;;;;;13.80;6.10;;;-3.80;99.90;;;;;;5051798;28;20526;-78
2021/12/21 03:52:04;;;;;;;10.97;5.80;;;-3.80;99.90;;;;;;5052106;28;20076;-79
2021/12/21 03:54:30;;;;;;;11.33;5.40;;;-3.80;99.90;;;;;;5051863;28;20056;-77
2021/12/21 03:56:55;;;;;;;8.17;4.90;;;-3.80;99.90;;;;;;5052215;28;20496;-77
2021/12/21 03:59:21;;;;;;;13.33;4.80;;;-3.80;99.90;;;;;;5052253;28;20392;-77
2021/12/21 04:01:49;;;;;;;9.97;5.00;;;-3.80;99.90;;;;;;5051638;28;20047;-78
2021/12/21 04:04:18;;;;;;;15.47;6.03;;;-3.80;99.90;;;;;;5051260;28;20800;-76
2021/12/21 04:06:44;;;;;;;10.67;4.60;;;-3.80;99.90;;;;;;5050229;28;20052;-77
2021/12/21 04:09:10;;;;;;;9.10;5.47;;;-3.80;99.90;;;;;;5052029;28;20522;-78
2021/12/21 04:11:36;;;;;;;11.07;4.80;;;-3.80;99.90;;;;;;5034085;28;20053;-77
2021/12/21 04:14:02;;;;;;;10.57;5.67;;;-3.80;99.90;;;;;;5052017;28;20041;-77
2021/12/21 04:16:28;;;;;;;14.10;4.67;;;-3.90;99.90;;;;;;5052488;28;20512;-78
2021/12/21 04:18:54;;;;;;;12.50;5.30;;;-3.80;99.90;;;;;;5055481;28;20103;-77
2021/12/21 04:21:20;;;;;;;11.50;5.17;;;-3.90;99.90;;;;;;5055644;28;20053;-77
2021/12/21 04:23:46;;;;;;;10.37;4.80;;;-3.80;99.90;;;;;;5055761;28;20094;-76
2021/12/21 04:26:13;;;;;;;7.72;4.30;;;-3.90;99.90;;;;;;5055210;28;20037;-77
2021/12/21 04:28:40;;;;;;;7.88;4.18;;;-3.90;99.90;;;;;;5055702;28;20041;-77
2021/12/21 04:31:06;;;;;;;8.00;4.20;;;-3.90;99.90;;;;;;5055596;28;20072;-77
2021/12/21 04:33:33;;;;;;;10.43;4.30;;;-3.90;99.90;;;;;;5055320;28;20530;-77
2021/12/21 04:36:00;;;;;;;9.00;4.15;;;-3.90;99.90;;;;;;5037549;28;20080;-77
2021/12/21 04:38:31;;;;;;;11.00;5.10;;;-3.90;99.90;;;;;;5055341;28;20056;-78
2021/12/21 04:41:08;;;;;;;7.97;4.13;;;-3.90;99.90;;;;;;5038005;28;20053;-78
2021/12/21 04:43:34;;;;;;;9.87;4.80;;;-4.00;99.90;;;;;;5055312;28;20052;-76
2021/12/21 04:46:00;;;;;;;10.03;4.83;;;-3.90;99.90;;;;;;5036882;28;20068;-77
2021/12/21 04:48:27;;;;;;;9.77;4.73;;;-4.00;99.90;;;;;;5054337;28;20041;-77
2021/12/21 04:50:53;;;;;;;9.87;4.47;;;-3.90;99.90;;;;;;5037373;28;20106;-78
2021/12/21 04:53:18;;;;;;;9.73;4.33;;;-4.00;99.90;;;;;;5055269;28;20048;-78
2021/12/21 04:55:44;;;;;;;12.50;4.43;;;-4.00;99.90;;;;;;5048269;28;20037;-77
2021/12/21 04:58:10;;;;;;;7.43;4.13;;;-4.00;99.90;;;;;;5035605;28;20040;-77
2021/12/21 05:00:38;;;;;;;9.67;4.23;;;-4.00;99.90;;;;;;5055032;28;20049;-77
2021/12/21 05:03:04;;;;;;;9.63;4.60;;;-4.00;99.90;;;;;;5037353;28;20041;-78
2021/12/21 05:05:30;;;;;;;6.83;4.00;;;-4.00;99.90;;;;;;5036230;28;20049;-78
2021/12/21 05:08:17;;;;;;;7.80;4.40;;;-4.00;99.90;;;;;;5054919;28;20120;-77
2021/12/21 05:10:47;;;;;;;12.93;4.80;;;-4.00;99.90;;;;;;5055027;28;20072;-77
2021/12/21 05:13:15;;;;;;;10.27;4.00;;;-4.00;99.90;;;;;;5054966;28;20041;-78
2021/12/21 05:15:41;;;;;;;8.87;4.10;;;-4.00;99.90;;;;;;5054768;28;20103;-77
2021/12/21 05:18:07;;;;;;;10.13;4.13;;;-4.10;99.90;;;;;;5054771;28;20123;-77
2021/12/21 05:20:33;;;;;;;10.13;5.07;;;-4.10;99.90;;;;;;5036094;28;20115;-78
2021/12/21 05:22:58;;;;;;;10.70;5.40;;;-4.00;99.90;;;;;;5037131;28;20107;-77
2021/12/21 05:25:24;;;;;;;11.30;4.77;;;-4.10;99.90;;;;;;5036719;28;20072;-78
2021/12/21 05:27:50;;;;;;;10.77;5.53;;;-4.10;99.90;;;;;;5053878;28;20080;-77
2021/12/21 05:30:15;;;;;;;12.00;5.33;;;-4.10;99.90;;;;;;5054041;28;20041;-77
2021/12/21 05:32:41;;;;;;;10.90;5.20;;;-4.10;99.90;;;;;;5054641;28;20040;-77
2021/12/21 05:35:08;;;;;;;9.40;4.77;;;-4.10;99.90;;;;;;5054159;28;20542;-78
2021/12/21 05:37:36;;;;;;;12.50;5.60;;;-4.10;99.90;;;;;;5054141;28;20047;-78
2021/12/21 05:40:14;;;;;;;12.20;5.70;;;-4.10;99.90;;;;;;5035846;28;20057;-77
2021/12/21 05:42:41;;;;;;;12.30;6.03;;;-4.10;99.90;;;;;;5053911;28;20115;-77
2021/12/21 05:45:08;;;;;;;13.37;5.50;;;-4.10;99.90;;;;;;5054687;28;20051;-77
2021/12/21 05:47:35;;;;;;;10.40;5.10;;;-4.10;99.90;;;;;;5054097;28;20037;-76
2021/12/21 05:50:02;;;;;;;12.90;5.10;;;-4.20;99.90;;;;;;5036601;28;20056;-78
2021/12/21 05:52:28;;;;;;;10.30;4.90;;;-4.20;99.90;;;;;;5053568;28;20044;-78
2021/12/21 05:54:53;;;;;;;11.60;4.73;;;-4.20;99.90;;;;;;5035933;28;20547;-77
2021/12/21 05:57:19;;;;;;;12.53;4.80;;;-4.20;99.90;;;;;;5054093;28;20075;-77
2021/12/21 05:59:45;;;;;;;12.87;4.87;;;-4.20;99.90;;;;;;5053576;28;20049;-77
2021/12/21 06:02:11;;;;;;;10.03;4.73;;;-4.20;99.90;;;;;;5053762;28;20476;-77
2021/12/21 06:04:36;;;;;;;9.87;4.90;;;-4.20;99.90;;;;;;5053620;28;20044;-77
2021/12/21 06:07:02;;;;;;;9.73;4.70;;;-4.20;99.90;;;;;;5066235;28;20495;-77
2021/12/21 06:09:29;;;;;;;11.13;5.07;;;-4.20;99.90;;;;;;5048547;28;20132;-77
2021/12/21 06:25:34;;;;;;;9.10;5.18;;;-4.30;99.90;;;;;;5053123;28;20072;-77
2021/12/21 06:28:00;;;;;;;11.90;6.00;;;-4.30;99.90;;;;;;5052837;28;20562;-77
2021/12/21 06:30:26;;;;;;;11.03;5.77;;;-4.20;99.90;;;;;;5067440;28;20047;-76
2021/12/21 06:32:52;;;;;;;10.67;5.33;;;-4.30;99.90;;;;;;5035418;28;20044;-76
2021/12/21 06:35:18;;;;;;;13.20;5.27;;;-4.30;99.90;;;;;;5053426;28;20488;-77
2021/12/21 06:37:44;;;;;;;14.10;5.30;;;-4.30;99.90;;;;;;5053019;28;20053;-78
2021/12/21 06:40:10;;;;;;;14.47;4.90;;;-4.30;99.90;;;;;;5052634;28;20052;-77
2021/12/21 06:42:37;;;;;;;10.83;5.47;;;-4.30;99.90;;;;;;5053526;28;20408;-77
2021/12/21 06:45:11;;;;;;;12.30;5.37;;;-4.30;99.90;;;;;;5052841;28;20538;-77
2021/12/21 06:53:05;;;;;;;13.60;4.68;;;-4.30;99.90;;;;;;5052170;28;20053;-77
2021/12/21 06:55:31;;;;;;;12.07;4.70;;;-4.30;99.90;;;;;;5052513;28;20045;-78
2021/12/21 06:57:56;;;;;;;13.17;5.10;;;-4.30;99.90;;;;;;5052899;28;20041;-78
2021/12/21 07:00:22;;;;;;;11.13;5.30;;;-4.30;99.90;;;;;;5034373;28;20045;-77
2021/12/21 07:02:48;;;;;;;10.27;4.77;;;-4.30;99.90;;;;;;5052699;28;20048;-78
2021/12/21 07:05:15;;;;;;;10.40;4.83;;;-4.30;99.90;;;;;;5034641;28;20061;-78
2021/12/21 07:07:42;;;;;;;11.93;4.93;;;-4.30;99.90;;;;;;5052263;28;20087;-78
2021/12/21 07:10:12;;;;;;;13.50;5.17;;;-4.30;99.90;;;;;;5051818;28;20435;-78
2021/12/21 07:20:30;;;;;;;8.77;4.67;;;-4.30;99.90;;;;;;5051643;28;20488;-78
2021/12/21 07:22:55;;;;;;;9.20;4.87;;;-4.40;99.90;;;;;;5052484;28;20115;-78
2021/12/21 07:25:25;;;;;;;9.23;4.70;;;-4.40;99.90;;;;;;5052090;28;20041;-78
2021/12/21 07:27:51;;;;;;;13.57;5.00;;;-3.60;99.90;;;;;;5052226;28;20063;-78
2021/12/21 07:30:16;;;;;;;15.27;5.70;;;-4.40;99.90;;;;;;5034486;28;20041;-78
2021/12/21 07:32:42;;;;;;;11.23;4.37;;;-4.40;99.90;;;;;;5043034;28;20416;-76
2021/12/21 07:35:08;;;;;;;11.77;4.83;;;-4.40;99.90;;;;;;5052419;28;20048;-79
2021/12/21 07:37:35;;;;;;;13.53;6.03;;;-4.40;99.90;;;;;;5052557;28;20040;-79
2021/12/21 07:40:02;;;;;;;13.37;5.37;;;-4.40;99.90;;;;;;5051728;28;20067;-79
2021/12/21 07:42:28;;;;;;;11.70;4.73;;;-4.40;99.90;;;;;;5051565;28;20053;-78
2021/12/21 07:44:53;;;;;;;11.97;5.10;;;-4.40;99.90;;;;;;5052391;28;20397;-78
2021/12/21 07:47:19;;;;;;;9.83;4.80;;;-4.40;99.90;;;;;;5033987;28;20439;-79
2021/12/21 07:49:45;;;;;;;12.17;5.10;;;-4.40;99.90;;;;;;5034213;28;20128;-79
2021/12/21 07:52:11;;;;;;;10.50;4.93;;;-4.40;99.90;;;;;;5054252;28;20440;-78
2021/12/21 07:54:37;;;;;;;10.70;5.27;;;-4.40;99.90;;;;;;5056162;28;20041;-79
2021/12/21 07:57:06;;;;;;;17.23;7.17;;;-4.40;99.90;;;;;;5055835;28;20049;-78
2021/12/21 07:59:33;;;;;;;15.07;6.30;;;-4.30;99.90;;;;;;5056154;28;20076;-79
2021/12/21 08:01:59;;;;;;;13.20;5.50;;;-4.30;99.90;;;;;;5055830;28;20049;-79
2021/12/21 08:04:27;;;;;;;14.60;5.63;;;-4.30;99.90;;;;;;5055884;28;20029;-79
2021/12/21 08:07:00;;;;;;;12.97;5.87;;;-4.30;99.90;;;;;;5055575;28;20119;-79
2021/12/21 08:09:32;;;;;;;10.23;5.00;;;-4.30;99.90;;;;;;5037969;28;20060;-78
2021/12/21 08:14:36;;;;;;;15.10;6.77;;;-4.30;99.90;;;;;;5037445;28;20053;-78
2021/12/21 08:17:01;;;;;;;10.47;5.70;;;-4.30;99.90;;;;;;5055642;28;20106;-78
2021/12/21 08:19:27;;;;;;;12.53;5.80;;;-3.30;99.90;;;;;;5055599;28;20438;-78
2021/12/21 08:21:53;;;;;;;16.73;6.77;;;-3.80;99.90;;;;;;5037428;28;20498;-79
2021/12/21 08:24:18;;;;;;;15.43;6.33;;;-4.20;99.90;;;;;;5055529;28;20060;-79
2021/12/21 08:26:44;;;;;;;14.20;5.80;;;-4.20;99.90;;;;;;5054712;28;20107;-78
2021/12/21 08:29:10;;;;;;;11.67;5.97;;;-4.20;99.90;;;;;;5055196;28;20146;-78
2021/12/21 08:31:35;;;;;;;13.47;5.60;;;-4.10;99.90;;;;;;5055569;28;20072;-78
2021/12/21 08:34:01;;;;;;;11.50;5.77;;;-4.10;99.90;;;;;;5037246;28;20049;-77
2021/12/21 08:36:27;;;;;;;12.00;5.90;;;-4.10;99.90;;;;;;5055216;28;20041;-80
2021/12/21 08:38:53;;;;;;;10.30;4.90;;;-4.00;99.90;;;;;;5051387;28;20054;-77
2021/12/21 08:41:20;;;;;;;10.90;5.73;;;-3.00;99.90;;;;;;5049699;28;20139;-79
2021/12/21 08:43:47;;;;;;;11.80;5.77;;;-4.00;99.90;;;;;;5054801;28;20550;-79
2021/12/21 08:46:12;;;;;;;12.53;6.00;;;-4.00;99.90;;;;;;5052126;28;20052;-77
2021/12/21 08:48:38;;;;;;;11.10;5.07;;;-3.90;99.90;;;;;;5050986;28;20033;-77
2021/12/21 08:51:05;;;;;;;8.87;4.77;;;-3.90;99.90;;;;;;5054422;28;20049;-80
2021/12/21 08:53:31;;;;;;;12.43;5.77;;;-3.90;99.90;;;;;;5037407;28;20071;-79
2021/12/21 08:55:57;;;;;;;11.27;5.50;;;-3.80;99.90;;;;;;5033537;28;20041;-80
2021/12/21 08:58:23;;;;;;;15.23;6.50;;;-3.80;99.90;;;;;;5050249;28;20041;-79
2021/12/21 09:00:50;;;;;;;24.13;8.97;;;-3.80;99.90;;;;;;5055157;28;20076;-79
2021/12/21 09:03:17;;;;;;;17.07;7.83;;;-3.70;99.90;;;;;;5054394;28;20057;-80
2021/12/21 09:05:43;;;;;;;20.07;10.67;;;-3.70;99.90;;;;;;5036881;28;20037;-79
2021/12/21 09:08:12;;;;;;;18.97;9.93;;;-3.60;99.90;;;;;;5035546;28;20041;-79
2021/12/21 09:10:39;;;;;;;21.03;8.30;;;-3.60;99.90;;;;;;5054466;28;20052;-80
2021/12/21 09:13:06;;;;;;;14.10;8.30;;;-3.50;99.90;;;;;;5054040;28;20049;-79
2021/12/21 09:15:31;;;;;;;21.70;8.87;;;-3.50;99.90;;;;;;5054332;28;20044;-79
2021/12/21 09:17:58;;;;;;;20.77;8.20;;;-3.40;99.90;;;;;;5020224;28;20048;-79
2021/12/21 09:20:26;;;;;;;17.80;7.93;;;-3.40;99.90;;;;;;5050659;28;20049;-80
2021/12/21 09:22:52;;;;;;;18.03;8.63;;;-3.30;99.90;;;;;;5034599;28;20046;-80
2021/12/21 09:25:18;;;;;;;18.17;10.07;;;-3.20;99.90;;;;;;5016449;28;20045;-78
2021/12/21 09:27:44;;;;;;;20.43;10.73;;;-3.20;99.90;;;;;;5049957;28;20045;-79
2021/12/21 09:30:14;;;;;;;15.60;8.83;;;-3.10;99.90;;;;;;5053972;28;20048;-80
2021/12/21 09:32:40;;;;;;;15.53;9.83;;;-3.00;99.90;;;;;;5047934;28;20042;-80
2021/12/21 09:35:07;;;;;;;29.30;11.87;;;-3.00;99.90;;;;;;5048272;28;20395;-79
2021/12/21 09:37:33;;;;;;;24.08;11.43;;;-2.80;99.90;;;;;;5053979;28;20041;-80
2021/12/21 09:39:59;;;;;;;25.50;11.70;;;-2.70;99.90;;;;;;5052891;28;20534;-78
2021/12/21 09:42:28;;;;;;;29.45;13.27;;;-2.60;99.90;;;;;;5050663;28;20080;-79
2021/12/21 09:44:55;;;;;;;21.10;12.65;;;-2.50;99.90;;;;;;5052235;28;20488;-78
2021/12/21 09:47:21;;;;;;;26.17;14.20;;;-2.30;99.90;;;;;;5053132;28;20045;-78
2021/12/21 09:49:48;;;;;;;30.02;15.23;;;-2.20;99.90;;;;;;5053019;28;20045;-78
2021/12/21 09:52:20;;;;;;;27.02;14.73;;;-2.00;99.90;;;;;;5039526;28;20056;-78
2021/12/21 09:54:47;;;;;;;34.80;16.73;;;-1.90;99.90;;;;;;5033605;28;20057;-77
2021/12/21 09:57:16;;;;;;;31.65;16.63;;;-1.80;99.90;;;;;;5051570;28;20051;-74
2021/12/21 09:59:46;;;;;;;30.20;17.08;;;-1.60;99.90;;;;;;5053221;28;20482;-75
2021/12/21 10:02:12;;;;;;;31.13;17.05;;;-1.40;99.90;;;;;;5035233;28;20053;-76
2021/12/21 10:04:47;;;;;;;34.28;17.95;;;-1.20;99.90;;;;;;5053594;28;20049;-77
2021/12/21 10:07:14;;;;;;;31.65;19.20;;;-1.00;99.90;;;;;;5042477;28;20050;-76
2021/12/21 10:09:43;;;;;;;28.52;16.50;;;-0.80;99.90;;;;;;5034215;28;20128;-77
2021/12/21 10:12:13;;;;;;;28.67;15.32;;;-0.50;99.90;;;;;;5049666;28;20047;-77
2021/12/21 10:14:39;;;;;;;22.27;13.55;;;-0.30;99.90;;;;;;5052595;28;20044;-78
2021/12/21 10:17:07;;;;;;;32.38;15.10;;;-0.10;99.90;;;;;;5053394;28;20037;-78
2021/12/21 10:19:33;;;;;;;27.65;16.75;;;0.10;99.90;;;;;;5053344;28;20060;-79
2021/12/21 10:22:12;;;;;;;33.05;15.02;;;0.30;99.90;;;;;;5034838;28;20041;-78
2021/12/21 10:24:50;;;;;;;28.20;14.25;;;0.60;99.90;;;;;;5035322;28;20522;-79
2021/12/21 10:27:18;;;;;;;31.15;14.70;;;0.70;99.90;;;;;;5035281;28;20511;-79
2021/12/21 10:29:55;;;;;;;23.40;12.75;;;1.00;99.90;;;;;;5053294;28;20084;-79
2021/12/21 10:32:25;;;;;;;24.33;14.05;;;1.10;99.90;;;;;;5034332;28;20084;-79
2021/12/21 10:34:59;;;;;;;24.80;13.82;;;1.40;99.90;;;;;;5053100;28;20048;-79
2021/12/21 10:37:38;;;;;;;27.45;12.82;;;1.60;99.90;;;;;;5035159;28;20472;-79
2021/12/21 10:40:25;;;;;;;22.80;10.25;;;1.90;99.90;;;;;;5052061;28;20091;-76
2021/12/21 10:43:01;;;;;;;18.55;10.75;;;2.00;99.90;;;;;;5050524;28;20071;-76
2021/12/21 10:45:37;;;;;;;21.08;12.27;;;2.20;99.90;;;;;;5052789;28;20097;-77
2021/12/21 10:48:05;;;;;;;27.80;13.95;;;2.40;99.90;;;;;;5052478;28;20037;-76
2021/12/21 10:50:33;;;;;;;22.02;12.25;;;2.60;99.90;;;;;;5052396;28;20073;-76
2021/12/21 10:53:00;;;;;;;16.85;11.20;;;2.90;99.90;;;;;;5052853;28;20119;-77
2021/12/21 10:55:36;;;;;;;25.13;11.65;;;3.10;99.90;;;;;;5034949;28;20056;-78
2021/12/21 10:58:06;;;;;;;14.95;10.35;;;3.20;99.90;;;;;;5052846;28;20052;-78
2021/12/21 11:00:32;;;;;;;17.92;10.93;;;3.40;99.90;;;;;;5052674;28;20076;-76
2021/12/21 11:02:58;;;;;;;21.42;10.40;;;3.50;99.90;;;;;;5051948;28;20076;-77
2021/12/21 11:05:26;;;;;;;24.70;9.45;;;3.60;99.90;;;;;;5052452;28;20076;-77
2021/12/21 11:08:08;;;;;;;21.48;9.00;;;3.70;99.90;;;;;;5052637;28;20049;-76
2021/12/21 11:10:36;;;;;;;15.95;8.90;;;3.90;99.90;;;;;;5034366;28;20057;-76
2021/12/21 11:13:10;;;;;;;17.60;8.48;;;4.00;99.90;;;;;;5052237;28;20087;-76
2021/12/21 11:15:42;;;;;;;14.10;7.13;;;4.10;99.90;;;;;;5052511;28;20088;-77
2021/12/21 11:18:10;;;;;;;12.85;7.10;;;4.20;99.90;;;;;;5052117;28;20396;-77
2021/12/21 11:20:37;;;;;;;18.88;6.40;;;4.20;99.90;;;;;;5052157;28;20040;-77
2021/12/21 11:23:06;;;;;;;14.38;5.97;;;4.20;99.90;;;;;;5051840;28;20449;-77
2021/12/21 11:25:33;;;;;;;14.20;6.80;;;4.40;99.90;;;;;;5051861;28;20077;-76
2021/12/21 11:28:01;;;;;;;13.38;6.28;;;4.40;99.90;;;;;;5052105;28;20052;-77
2021/12/21 11:30:27;;;;;;;23.08;7.70;;;5.10;99.90;;;;;;5052192;28;20132;-77
2021/12/21 11:32:54;;;;;;;21.17;7.00;;;4.60;99.90;;;;;;5051415;28;20049;-76
2021/12/21 11:38:08;;;;;;;16.25;6.30;;;4.70;99.90;;;;;;5051708;28;20127;-75
2021/12/21 11:40:43;;;;;;;16.77;6.68;;;4.90;99.90;;;;;;5051023;28;20057;-75
2021/12/21 11:43:27;;;;;;;15.65;6.55;;;4.80;99.90;;;;;;5031116;28;20041;-74
2021/12/21 11:46:00;;;;;;;14.32;6.68;;;4.90;99.90;;;;;;5051387;28;20507;-76
2021/12/21 11:48:30;;;;;;;13.05;6.18;;;5.00;99.90;;;;;;5051511;28;20037;-76
2021/12/21 11:51:12;;;;;;;12.10;6.65;;;5.10;99.90;;;;;;5050435;28;20052;-75
2021/12/21 11:53:38;;;;;;;13.48;6.20;;;5.20;99.90;;;;;;5052325;28;20041;-76
2021/12/21 11:56:05;;;;;;;10.98;5.72;;;5.20;99.90;;;;;;5034305;28;20041;-77
2021/12/21 11:58:41;;;;;;;16.88;6.22;;;5.30;99.90;;;;;;5052041;28;20649;-78
2021/12/21 12:01:23;;;;;;;18.98;7.85;;;5.40;99.90;;;;;;5032355;28;20382;-74
2021/12/21 12:04:00;;;;;;;17.33;6.75;;;5.50;99.90;;;;;;5051113;28;20045;-75
2021/12/21 12:06:29;;;;;;;37.08;10.73;;;5.50;99.90;;;;;;5051338;28;20057;-79
2021/12/21 12:09:04;;;;;;;28.90;8.75;;;5.60;99.90;;;;;;5033233;28;20506;-77
2021/12/21 12:11:37;;;;;;;17.35;6.28;;;5.60;99.90;;;;;;5017000;28;20056;-77
2021/12/21 12:14:09;;;;;;;11.13;5.45;;;5.60;99.90;;;;;;5051682;28;20037;-77
2021/12/21 12:16:41;;;;;;;14.07;6.03;;;5.60;99.90;;;;;;5032225;28;20040;-77
2021/12/21 12:19:21;;;;;;;27.33;10.48;;;5.60;99.90;;;;;;5051922;28;20045;-76
2021/12/21 12:22:03;;;;;;;29.92;11.57;;;5.70;99.90;;;;;;5033636;28;20056;-78
2021/12/21 12:24:42;;;;;;;32.20;10.95;;;5.80;99.90;;;;;;5051748;28;20091;-77
2021/12/21 12:27:22;;;;;;;13.02;6.00;;;5.80;99.90;;;;;;5051667;28;20045;-76
2021/12/21 12:29:50;;;;;;;11.05;5.45;;;5.80;99.90;;;;;;5051555;28;20041;-77
2021/12/21 12:32:18;;;;;;;9.95;5.25;;;5.80;99.90;;;;;;5050663;28;20074;-77
2021/12/21 12:34:44;;;;;;;11.43;5.15;;;5.90;99.90;;;;;;5033810;28;20065;-76
2021/12/21 12:37:22;;;;;;;12.00;5.47;;;5.80;99.90;;;;;;5051214;28;20040;-76
2021/12/21 12:39:51;;;;;;;12.20;5.60;;;5.90;99.90;;;;;;5055107;28;20045;-76
2021/12/21 12:42:24;;;;;;;10.52;5.30;;;5.90;99.90;;;;;;5055006;28;20049;-76
2021/12/21 12:45:04;;;;;;;11.05;5.38;;;5.90;99.90;;;;;;5055140;28;20037;-78
2021/12/21 12:47:29;;;;;;;14.50;5.65;;;6.00;99.90;;;;;;5055405;28;20041;-76
2021/12/21 12:49:55;;;;;;;13.15;5.60;;;6.10;99.90;;;;;;5055589;28;20183;-79
2021/12/21 12:52:28;;;;;;;13.65;5.45;;;6.20;99.90;;;;;;5054744;28;20045;-76
2021/12/21 12:54:56;;;;;;;9.65;5.03;;;6.30;99.90;;;;;;5055186;28;20399;-76
2021/12/21 12:57:36;;;;;;;15.38;5.97;;;6.40;99.90;;;;;;5054803;28;20080;-77
2021/12/21 13:00:14;;;;;;;12.95;5.82;;;6.40;99.90;;;;;;5060427;28;20075;-75
2021/12/21 13:02:55;;;;;;;13.93;5.55;;;6.50;99.90;;;;;;5054851;28;20057;-75
2021/12/21 13:05:25;;;;;;;11.30;4.93;;;6.60;99.90;;;;;;5037245;28;20068;-77
2021/12/21 13:07:51;;;;;;;10.50;4.35;;;6.60;99.90;;;;;;5054492;28;20056;-75
2021/12/21 13:10:16;;;;;;;12.02;5.05;;;6.70;99.90;;;;;;5054531;28;20048;-76
2021/12/21 13:12:42;;;;;;;12.18;4.80;;;6.70;99.90;;;;;;5054708;28;20044;-77
2021/12/21 13:15:08;;;;;;;16.20;5.20;;;6.70;99.90;;;;;;5037104;28;20076;-76
2021/12/21 13:17:35;;;;;;;12.40;4.97;;;6.80;99.90;;;;;;5054778;28;20037;-75
2021/12/21 13:20:01;;;;;;;9.77;4.45;;;6.80;99.90;;;;;;5054660;28;20145;-77
2021/12/21 13:22:28;;;;;;;9.13;4.40;;;6.90;99.90;;;;;;5054584;28;20566;-76
2021/12/21 13:24:54;;;;;;;12.95;4.82;;;7.00;99.90;;;;;;5053888;28;20445;-76
2021/12/21 13:27:23;;;;;;;11.00;4.72;;;7.10;99.90;;;;;;5054474;28;20037;-76
2021/12/21 13:29:50;;;;;;;9.02;4.60;;;7.20;99.90;;;;;;5054421;28;20084;-77
2021/12/21 13:32:19;;;;;;;10.48;4.38;;;7.20;99.90;;;;;;5054440;28;20057;-76
2021/12/21 13:34:49;;;;;;;11.68;4.70;;;7.30;99.90;;;;;;5054409;28;20048;-77
2021/12/21 13:37:19;;;;;;;10.40;4.53;;;7.30;99.90;;;;;;5054153;28;20049;-77
2021/12/21 13:39:53;;;;;;;9.90;4.55;;;7.40;99.90;;;;;;5053891;28;20055;-77
2021/12/21 13:42:22;;;;;;;16.65;4.75;;;7.30;99.90;;;;;;5054344;28;20056;-75
2021/12/21 13:44:55;;;;;;;12.10;4.72;;;7.40;99.90;;;;;;5054260;28;20123;-75
2021/12/21 13:47:29;;;;;;;16.67;5.35;;;7.50;99.90;;;;;;5054112;28;20053;-77
2021/12/21 13:50:06;;;;;;;14.98;4.50;;;7.50;99.90;;;;;;5052706;28;20063;-76
2021/12/21 13:52:42;;;;;;;9.15;4.10;;;7.50;99.90;;;;;;5036209;28;20048;-77
2021/12/21 13:55:20;;;;;;;20.52;4.65;;;7.50;99.90;;;;;;5053708;28;20499;-76
2021/12/21 13:57:48;;;;;;;9.63;4.20;;;7.50;99.90;;;;;;5053947;28;20041;-77
2021/12/21 14:00:14;;;;;;;11.13;4.20;;;7.60;99.90;;;;;;5053984;28;20033;-76
2021/12/21 14:02:50;;;;;;;13.38;4.97;;;7.50;99.90;;;;;;5036065;28;20053;-77